sensor_id;sensor_type;location;lat;lon;timestamp;pressure;altitude;pressure_sealevel;temperature;humidity
20019;BME280;10170;42.502;26.526;2023-05-13T00:00:20;100323.03;;;7.24;100.00
20019;BME280;10170;42.502;26.526;2023-05-13T00:02:47;100322.56;;;7.21;100.00
20019;BME280;10170;42.502;26.526;2023-05-13T00:05:14;100325.03;;;7.22;100.00
20019;BME280;10170;42.502;26.526;2023-05-13T00:07:40;100324.03;;;7.31;100.00
20019;BME280;10170;42.502;26.526;2023-05-13T00:10:08;100334.94;;;7.28;100.00
20019;BME280;10170;42.502;26.526;2023-05-13T00:12:34;100331.94;;;7.39;100.00
20019;BME280;10170;42.502;26.526;2023-05-13T00:15:02;100327.81;;;7.37;100.00
20019;BME280;10170;42.502;26.526;2023-05-13T00:17:29;100331.78;;;7.41;100.00
20019;BME280;10170;42.502;26.526;2023-05-13T00:19:56;100333.44;;;7.42;100.00
20019;BME280;10170;42.502;26.526;2023-05-13T00:22:22;100335.78;;;7.29;100.00
20019;BME280;10170;42.502;26.526;2023-05-13T00:24:49;100343.88;;;7.19;100.00
20019;BME280;10170;42.502;26.526;2023-05-13T00:27:16;100340.25;;;7.20;100.00
20019;BME280;10170;42.502;26.526;2023-05-13T00:29:42;100341.72;;;7.31;100.00
20019;BME280;10170;42.502;26.526;2023-05-13T00:32:09;100334.44;;;7.41;100.00
20019;BME280;10170;42.502;26.526;2023-05-13T00:34:36;100337.91;;;7.33;100.00
20019;BME280;10170;42.502;26.526;2023-05-13T00:37:03;100339.88;;;7.31;100.00
20019;BME280;10170;42.502;26.526;2023-05-13T00:39:30;100344.69;;;7.36;100.00
20019;BME280;10170;42.502;26.526;2023-05-13T00:41:57;100325.53;;;7.10;100.00
20019;BME280;10170;42.502;26.526;2023-05-13T00:44:26;100329.50;;;7.22;100.00
20019;BME280;10170;42.502;26.526;2023-05-13T00:46:53;100334.28;;;7.26;100.00
20019;BME280;10170;42.502;26.526;2023-05-13T00:49:20;100327.19;;;7.27;100.00
20019;BME280;10170;42.502;26.526;2023-05-13T00:51:47;100326.34;;;7.26;100.00
20019;BME280;10170;42.502;26.526;2023-05-13T00:54:13;100322.75;;;7.11;100.00
20019;BME280;10170;42.502;26.526;2023-05-13T00:56:40;100328.69;;;7.05;100.00
20019;BME280;10170;42.502;26.526;2023-05-13T00:59:07;100298.47;;;6.84;100.00
20019;BME280;10170;42.502;26.526;2023-05-13T01:01:44;100309.06;;;6.92;100.00
20019;BME280;10170;42.502;26.526;2023-05-13T01:10:00;100315.66;;;6.72;100.00
20019;BME280;10170;42.502;26.526;2023-05-13T01:12:32;100314.00;;;6.63;100.00
20019;BME280;10170;42.502;26.526;2023-05-13T01:15:04;100330.50;;;6.65;100.00
20019;BME280;10170;42.502;26.526;2023-05-13T01:17:48;100341.25;;;6.63;100.00
20019;BME280;10170;42.502;26.526;2023-05-13T01:20:20;100331.31;;;6.65;100.00
20019;BME280;10170;42.502;26.526;2023-05-13T01:22:47;100343.38;;;6.68;100.00
20019;BME280;10170;42.502;26.526;2023-05-13T01:25:14;100346.03;;;6.84;100.00
20019;BME280;10170;42.502;26.526;2023-05-13T01:27:40;100344.91;;;6.86;100.00
20019;BME280;10170;42.502;26.526;2023-05-13T01:30:08;100349.50;;;6.92;100.00
20019;BME280;10170;42.502;26.526;2023-05-13T01:32:36;100356.78;;;6.98;100.00
20019;BME280;10170;42.502;26.526;2023-05-13T01:35:04;100357.13;;;6.95;100.00
20019;BME280;10170;42.502;26.526;2023-05-13T01:37:32;100366.69;;;6.80;100.00
20019;BME280;10170;42.502;26.526;2023-05-13T01:39:59;100368.81;;;6.69;100.00
20019;BME280;10170;42.502;26.526;2023-05-13T01:42:28;100368.44;;;6.39;100.00
20019;BME280;10170;42.502;26.526;2023-05-13T01:44:55;100359.66;;;6.23;100.00
20019;BME280;10170;42.502;26.526;2023-05-13T01:47:23;100354.38;;;6.23;100.00
20019;BME280;10170;42.502;26.526;2023-05-13T01:49:49;100350.03;;;6.14;100.00
20019;BME280;10170;42.502;26.526;2023-05-13T01:52:16;100337.13;;;5.95;100.00
20019;BME280;10170;42.502;26.526;2023-05-13T01:54:43;100353.41;;;5.90;100.00
20019;BME280;10170;42.502;26.526;2023-05-13T01:57:10;100354.56;;;5.88;100.00
20019;BME280;10170;42.502;26.526;2023-05-13T01:59:36;100356.38;;;5.87;100.00
20019;BME280;10170;42.502;26.526;2023-05-13T02:02:03;100339.53;;;5.88;100.00
20019;BME280;10170;42.502;26.526;2023-05-13T02:04:31;100353.00;;;6.11;100.00
20019;BME280;10170;42.502;26.526;2023-05-13T02:06:57;100364.09;;;6.22;100.00
20019;BME280;10170;42.502;26.526;2023-05-13T02:09:24;100360.16;;;6.26;100.00
20019;BME280;10170;42.502;26.526;2023-05-13T02:11:51;100364.81;;;6.32;100.00
20019;BME280;10170;42.502;26.526;2023-05-13T02:14:17;100361.78;;;6.27;100.00
20019;BME280;10170;42.502;26.526;2023-05-13T02:16:44;100344.81;;;6.22;100.00
20019;BME280;10170;42.502;26.526;2023-05-13T02:19:11;100355.69;;;6.27;100.00
20019;BME280;10170;42.502;26.526;2023-05-13T02:21:38;100363.63;;;6.27;100.00
20019;BME280;10170;42.502;26.526;2023-05-13T02:24:05;100358.84;;;6.30;100.00
20019;BME280;10170;42.502;26.526;2023-05-13T02:26:32;100364.28;;;6.29;100.00
20019;BME280;10170;42.502;26.526;2023-05-13T02:28:58;100362.66;;;6.36;100.00
20019;BME280;10170;42.502;26.526;2023-05-13T02:31:25;100353.72;;;6.29;100.00
20019;BME280;10170;42.502;26.526;2023-05-13T02:33:52;100372.16;;;6.13;100.00
20019;BME280;10170;42.502;26.526;2023-05-13T02:36:19;100379.19;;;5.96;100.00
20019;BME280;10170;42.502;26.526;2023-05-13T02:38:46;100373.34;;;5.85;100.00
20019;BME280;10170;42.502;26.526;2023-05-13T02:41:13;100378.06;;;5.81;100.00
20019;BME280;10170;42.502;26.526;2023-05-13T02:43:39;100376.22;;;5.74;100.00
20019;BME280;10170;42.502;26.526;2023-05-13T02:46:06;100385.13;;;5.98;100.00
20019;BME280;10170;42.502;26.526;2023-05-13T02:48:33;100378.19;;;5.97;100.00
20019;BME280;10170;42.502;26.526;2023-05-13T02:51:00;100365.59;;;5.83;100.00
20019;BME280;10170;42.502;26.526;2023-05-13T02:53:26;100383.91;;;5.85;100.00
20019;BME280;10170;42.502;26.526;2023-05-13T02:55:53;100382.09;;;5.85;100.00
20019;BME280;10170;42.502;26.526;2023-05-13T02:58:20;100370.25;;;5.64;100.00
20019;BME280;10170;42.502;26.526;2023-05-13T03:00:48;100379.75;;;5.57;100.00
20019;BME280;10170;42.502;26.526;2023-05-13T03:03:15;100379.69;;;5.49;100.00
20019;BME280;10170;42.502;26.526;2023-05-13T03:05:42;100383.41;;;5.38;100.00
20019;BME280;10170;42.502;26.526;2023-05-13T03:08:08;100394.03;;;5.46;100.00
20019;BME280;10170;42.502;26.526;2023-05-13T03:10:35;100400.66;;;5.50;100.00
20019;BME280;10170;42.502;26.526;2023-05-13T03:13:02;100398.47;;;5.46;100.00
20019;BME280;10170;42.502;26.526;2023-05-13T03:15:28;100394.41;;;5.51;100.00
20019;BME280;10170;42.502;26.526;2023-05-13T03:17:55;100396.59;;;5.56;100.00
20019;BME280;10170;42.502;26.526;2023-05-13T03:20:23;100397.34;;;5.48;100.00
20019;BME280;10170;42.502;26.526;2023-05-13T03:22:50;100404.91;;;5.43;100.00
20019;BME280;10170;42.502;26.526;2023-05-13T03:25:17;100401.97;;;5.54;100.00
20019;BME280;10170;42.502;26.526;2023-05-13T03:27:43;100403.94;;;5.52;100.00
20019;BME280;10170;42.502;26.526;2023-05-13T03:30:10;100399.09;;;5.39;100.00
20019;BME280;10170;42.502;26.526;2023-05-13T03:32:37;100400.25;;;5.63;100.00
20019;BME280;10170;42.502;26.526;2023-05-13T03:35:04;100408.09;;;5.80;100.00
20019;BME280;10170;42.502;26.526;2023-05-13T03:37:31;100406.84;;;5.84;100.00
20019;BME280;10170;42.502;26.526;2023-05-13T03:39:57;100408.31;;;5.87;100.00
20019;BME280;10170;42.502;26.526;2023-05-13T03:42:24;100404.38;;;5.91;100.00
20019;BME280;10170;42.502;26.526;2023-05-13T03:44:51;100406.28;;;6.06;100.00
20019;BME280;10170;42.502;26.526;2023-05-13T03:47:18;100408.72;;;6.00;100.00
20019;BME280;10170;42.502;26.526;2023-05-13T03:49:45;100409.13;;;6.13;100.00
20019;BME280;10170;42.502;26.526;2023-05-13T03:52:13;100356.16;;;5.81;100.00
20019;BME280;10170;42.502;26.526;2023-05-13T03:54:40;100424.59;;;6.42;100.00
20019;BME280;10170;42.502;26.526;2023-05-13T03:57:07;100407.28;;;6.47;100.00
20019;BME280;10170;42.502;26.526;2023-05-13T03:59:34;100430.94;;;6.73;100.00
20019;BME280;10170;42.502;26.526;2023-05-13T04:02:01;100429.47;;;6.86;100.00
20019;BME280;10170;42.502;26.526;2023-05-13T04:04:28;100428.00;;;6.92;100.00
20019;BME280;10170;42.502;26.526;2023-05-13T04:06:55;100429.50;;;7.10;100.00
20019;BME280;10170;42.502;26.526;2023-05-13T04:09:21;100425.19;;;7.17;100.00
20019;BME280;10170;42.502;26.526;2023-05-13T04:11:48;100427.84;;;7.33;100.00
20019;BME280;10170;42.502;26.526;2023-05-13T04:14:15;100438.09;;;7.53;100.00
20019;BME280;10170;42.502;26.526;2023-05-13T04:16:41;100445.84;;;7.70;100.00
20019;BME280;10170;42.502;26.526;2023-05-13T04:19:08;100460.38;;;7.90;100.00
20019;BME280;10170;42.502;26.526;2023-05-13T04:21:35;100467.50;;;7.90;100.00
20019;BME280;10170;42.502;26.526;2023-05-13T04:24:02;100470.94;;;7.98;100.00
20019;BME280;10170;42.502;26.526;2023-05-13T04:26:28;100470.91;;;8.14;100.00
20019;BME280;10170;42.502;26.526;2023-05-13T04:28:55;100479.34;;;8.26;100.00
20019;BME280;10170;42.502;26.526;2023-05-13T04:31:22;100479.34;;;8.26;100.00
20019;BME280;10170;42.502;26.526;2023-05-13T04:33:48;100482.28;;;8.39;100.00
20019;BME280;10170;42.502;26.526;2023-05-13T04:36:15;100486.72;;;8.46;100.00
20019;BME280;10170;42.502;26.526;2023-05-13T04:38:42;100494.78;;;8.61;100.00
20019;BME280;10170;42.502;26.526;2023-05-13T04:41:09;100492.59;;;8.73;100.00
20019;BME280;10170;42.502;26.526;2023-05-13T04:43:35;100474.69;;;8.75;100.00
20019;BME280;10170;42.502;26.526;2023-05-13T04:46:02;100497.84;;;8.81;100.00
20019;BME280;10170;42.502;26.526;2023-05-13T04:48:56;100510.03;;;8.59;100.00
20019;BME280;10170;42.502;26.526;2023-05-13T04:51:23;100517.78;;;8.69;100.00
20019;BME280;10170;42.502;26.526;2023-05-13T04:53:50;100513.25;;;8.85;100.00
20019;BME280;10170;42.502;26.526;2023-05-13T04:56:17;100507.41;;;8.90;100.00
20019;BME280;10170;42.502;26.526;2023-05-13T04:58:44;100509.22;;;8.89;100.00
20019;BME280;10170;42.502;26.526;2023-05-13T05:01:10;100510.16;;;9.04;100.00
20019;BME280;10170;42.502;26.526;2023-05-13T05:03:37;100500.31;;;9.13;100.00
20019;BME280;10170;42.502;26.526;2023-05-13T05:06:04;100483.69;;;9.19;100.00
20019;BME280;10170;42.502;26.526;2023-05-13T05:08:31;100498.78;;;9.18;100.00
20019;BME280;10170;42.502;26.526;2023-05-13T05:10:58;100506.16;;;9.31;100.00
20019;BME280;10170;42.502;26.526;2023-05-13T05:13:26;100508.44;;;9.34;100.00
20019;BME280;10170;42.502;26.526;2023-05-13T05:15:52;100515.50;;;9.49;100.00
20019;BME280;10170;42.502;26.526;2023-05-13T05:18:19;100520.13;;;9.70;100.00
20019;BME280;10170;42.502;26.526;2023-05-13T05:20:46;100506.97;;;9.77;100.00
20019;BME280;10170;42.502;26.526;2023-05-13T05:23:13;100520.78;;;9.72;100.00
20019;BME280;10170;42.502;26.526;2023-05-13T05:25:39;100526.22;;;9.93;100.00
20019;BME280;10170;42.502;26.526;2023-05-13T05:28:07;100522.63;;;10.09;100.00
20019;BME280;10170;42.502;26.526;2023-05-13T05:30:34;100526.69;;;10.19;100.00
20019;BME280;10170;42.502;26.526;2023-05-13T05:33:06;100524.09;;;10.11;100.00
20019;BME280;10170;42.502;26.526;2023-05-13T05:35:33;100513.22;;;10.35;100.00
20019;BME280;10170;42.502;26.526;2023-05-13T05:38:06;100528.22;;;10.72;100.00
20019;BME280;10170;42.502;26.526;2023-05-13T05:40:35;100532.09;;;10.84;100.00
20019;BME280;10170;42.502;26.526;2023-05-13T05:43:04;100526.97;;;11.18;100.00
20019;BME280;10170;42.502;26.526;2023-05-13T05:45:30;100516.56;;;11.23;100.00
20019;BME280;10170;42.502;26.526;2023-05-13T05:47:57;100513.78;;;11.31;100.00
20019;BME280;10170;42.502;26.526;2023-05-13T05:50:24;100504.91;;;11.45;100.00
20019;BME280;10170;42.502;26.526;2023-05-13T05:52:50;100520.22;;;11.79;100.00
20019;BME280;10170;42.502;26.526;2023-05-13T05:55:17;100518.72;;;11.70;100.00
20019;BME280;10170;42.502;26.526;2023-05-13T05:57:44;100520.06;;;11.87;100.00
20019;BME280;10170;42.502;26.526;2023-05-13T06:00:11;100534.53;;;11.78;100.00
20019;BME280;10170;42.502;26.526;2023-05-13T06:02:38;100534.03;;;11.89;100.00
20019;BME280;10170;42.502;26.526;2023-05-13T06:05:06;100536.53;;;12.18;100.00
20019;BME280;10170;42.502;26.526;2023-05-13T06:07:32;100532.72;;;12.68;100.00
20019;BME280;10170;42.502;26.526;2023-05-13T06:09:59;100537.19;;;13.02;100.00
20019;BME280;10170;42.502;26.526;2023-05-13T06:12:26;100546.28;;;13.07;100.00
20019;BME280;10170;42.502;26.526;2023-05-13T06:14:52;100545.16;;;13.42;100.00
20019;BME280;10170;42.502;26.526;2023-05-13T06:17:19;100544.41;;;13.81;100.00
20019;BME280;10170;42.502;26.526;2023-05-13T06:19:46;100543.50;;;13.35;100.00
20019;BME280;10170;42.502;26.526;2023-05-13T06:22:13;100544.44;;;13.08;100.00
20019;BME280;10170;42.502;26.526;2023-05-13T06:24:40;100538.72;;;13.17;100.00
20019;BME280;10170;42.502;26.526;2023-05-13T06:27:10;100517.41;;;13.50;100.00
20019;BME280;10170;42.502;26.526;2023-05-13T06:29:37;100527.75;;;14.12;100.00
20019;BME280;10170;42.502;26.526;2023-05-13T06:32:04;100526.63;;;14.65;100.00
20019;BME280;10170;42.502;26.526;2023-05-13T06:34:31;100531.56;;;14.74;100.00
20019;BME280;10170;42.502;26.526;2023-05-13T06:36:58;100535.59;;;14.90;100.00
20019;BME280;10170;42.502;26.526;2023-05-13T06:39:24;100553.19;;;15.24;100.00
20019;BME280;10170;42.502;26.526;2023-05-13T06:41:51;100551.31;;;14.80;95.77
20019;BME280;10170;42.502;26.526;2023-05-13T06:44:18;100535.69;;;14.57;95.69
20019;BME280;10170;42.502;26.526;2023-05-13T06:46:44;100550.63;;;14.98;97.11
20019;BME280;10170;42.502;26.526;2023-05-13T06:49:11;100548.63;;;14.73;95.51
20019;BME280;10170;42.502;26.526;2023-05-13T06:51:38;100537.38;;;14.58;99.30
20019;BME280;10170;42.502;26.526;2023-05-13T06:54:05;100539.63;;;14.68;96.98
20019;BME280;10170;42.502;26.526;2023-05-13T06:56:32;100536.47;;;14.84;99.02
20019;BME280;10170;42.502;26.526;2023-05-13T06:59:00;100537.34;;;15.16;95.20
20019;BME280;10170;42.502;26.526;2023-05-13T07:01:27;100539.75;;;15.68;94.78
20019;BME280;10170;42.502;26.526;2023-05-13T07:03:54;100535.69;;;15.59;86.83
20019;BME280;10170;42.502;26.526;2023-05-13T07:06:21;100531.69;;;15.37;81.52
20019;BME280;10170;42.502;26.526;2023-05-13T07:08:48;100520.63;;;15.20;81.44
20019;BME280;10170;42.502;26.526;2023-05-13T07:11:14;100523.06;;;15.66;86.47
20019;BME280;10170;42.502;26.526;2023-05-13T07:13:41;100514.28;;;16.26;78.52
20019;BME280;10170;42.502;26.526;2023-05-13T07:16:08;100512.91;;;16.42;75.19
20019;BME280;10170;42.502;26.526;2023-05-13T07:18:36;100506.59;;;16.72;74.29
20019;BME280;10170;42.502;26.526;2023-05-13T07:21:02;100520.84;;;16.91;73.26
20019;BME280;10170;42.502;26.526;2023-05-13T07:23:29;100521.44;;;16.93;75.02
20019;BME280;10170;42.502;26.526;2023-05-13T07:25:56;100520.09;;;16.66;73.04
20019;BME280;10170;42.502;26.526;2023-05-13T07:28:23;100527.41;;;16.59;71.25
20019;BME280;10170;42.502;26.526;2023-05-13T07:30:50;100524.63;;;16.47;72.45
20019;BME280;10170;42.502;26.526;2023-05-13T07:33:18;100520.94;;;15.99;72.56
20019;BME280;10170;42.502;26.526;2023-05-13T07:35:45;100537.94;;;15.62;74.88
20019;BME280;10170;42.502;26.526;2023-05-13T07:38:12;100538.44;;;16.26;75.32
20019;BME280;10170;42.502;26.526;2023-05-13T07:40:40;100539.63;;;16.55;73.87
20019;BME280;10170;42.502;26.526;2023-05-13T07:43:06;100553.44;;;16.58;72.81
20019;BME280;10170;42.502;26.526;2023-05-13T07:45:33;100549.41;;;16.49;72.53
20019;BME280;10170;42.502;26.526;2023-05-13T07:48:00;100541.50;;;16.30;76.65
20019;BME280;10170;42.502;26.526;2023-05-13T07:50:27;100538.63;;;16.92;76.74
20019;BME280;10170;42.502;26.526;2023-05-13T07:52:54;100540.44;;;17.28;74.66
20019;BME280;10170;42.502;26.526;2023-05-13T07:55:21;100536.41;;;17.78;71.25
20019;BME280;10170;42.502;26.526;2023-05-13T07:57:48;100535.41;;;18.37;65.76
20019;BME280;10170;42.502;26.526;2023-05-13T08:00:15;100532.69;;;18.71;63.94
20019;BME280;10170;42.502;26.526;2023-05-13T08:02:42;100524.13;;;17.23;63.46
20019;BME280;10170;42.502;26.526;2023-05-13T08:05:09;100519.22;;;16.90;66.02
20019;BME280;10170;42.502;26.526;2023-05-13T08:07:37;100525.47;;;17.32;65.38
20019;BME280;10170;42.502;26.526;2023-05-13T08:10:04;100524.38;;;18.04;67.10
20019;BME280;10170;42.502;26.526;2023-05-13T08:12:31;100524.66;;;18.60;63.17
20019;BME280;10170;42.502;26.526;2023-05-13T08:14:57;100518.31;;;18.31;63.51
20019;BME280;10170;42.502;26.526;2023-05-13T08:17:24;100512.00;;;18.14;61.88
20019;BME280;10170;42.502;26.526;2023-05-13T08:19:51;100508.34;;;18.78;62.06
20019;BME280;10170;42.502;26.526;2023-05-13T08:22:18;100508.88;;;18.91;61.07
20019;BME280;10170;42.502;26.526;2023-05-13T08:24:44;100523.59;;;18.72;60.09
20019;BME280;10170;42.502;26.526;2023-05-13T08:27:11;100505.25;;;18.86;60.48
20019;BME280;10170;42.502;26.526;2023-05-13T08:29:38;100525.50;;;20.01;59.31
20019;BME280;10170;42.502;26.526;2023-05-13T08:32:05;100526.47;;;19.22;59.25
20019;BME280;10170;42.502;26.526;2023-05-13T08:34:32;100519.84;;;19.69;59.41
20019;BME280;10170;42.502;26.526;2023-05-13T08:36:59;100521.41;;;19.99;58.95
20019;BME280;10170;42.502;26.526;2023-05-13T08:39:25;100522.22;;;20.32;57.00
20019;BME280;10170;42.502;26.526;2023-05-13T08:41:55;100516.88;;;19.71;56.14
20019;BME280;10170;42.502;26.526;2023-05-13T08:44:27;100516.22;;;20.14;58.17
20019;BME280;10170;42.502;26.526;2023-05-13T08:49:33;100495.00;;;20.55;55.66
20019;BME280;10170;42.502;26.526;2023-05-13T08:52:00;100503.50;;;20.09;56.10
20019;BME280;10170;42.502;26.526;2023-05-13T08:54:28;100505.16;;;20.48;56.73
20019;BME280;10170;42.502;26.526;2023-05-13T08:56:55;100488.03;;;20.81;54.74
20019;BME280;10170;42.502;26.526;2023-05-13T08:59:22;100491.13;;;20.30;54.82
20019;BME280;10170;42.502;26.526;2023-05-13T09:01:49;100497.28;;;19.31;56.20
20019;BME280;10170;42.502;26.526;2023-05-13T09:04:17;100480.16;;;20.36;56.21
20019;BME280;10170;42.502;26.526;2023-05-13T09:06:47;100480.84;;;20.91;53.93
20019;BME280;10170;42.502;26.526;2023-05-13T09:09:14;100478.09;;;20.43;56.27
20019;BME280;10170;42.502;26.526;2023-05-13T09:11:41;100491.03;;;20.41;55.76
20019;BME280;10170;42.502;26.526;2023-05-13T09:14:10;100476.31;;;20.32;55.84
20019;BME280;10170;42.502;26.526;2023-05-13T09:16:38;100472.31;;;20.02;55.33
20019;BME280;10170;42.502;26.526;2023-05-13T09:19:05;100470.28;;;20.47;55.65
20019;BME280;10170;42.502;26.526;2023-05-13T09:21:34;100466.81;;;20.94;53.69
20019;BME280;10170;42.502;26.526;2023-05-13T09:24:09;100465.59;;;20.59;53.34
20019;BME280;10170;42.502;26.526;2023-05-13T09:26:37;100463.41;;;19.68;54.75
20019;BME280;10170;42.502;26.526;2023-05-13T09:31:51;100463.31;;;19.79;55.97
20019;BME280;10170;42.502;26.526;2023-05-13T09:37:05;100435.66;;;20.65;55.21
20019;BME280;10170;42.502;26.526;2023-05-13T09:39:39;100454.72;;;20.75;54.83
20019;BME280;10170;42.502;26.526;2023-05-13T09:42:14;100462.09;;;20.63;52.90
20019;BME280;10170;42.502;26.526;2023-05-13T09:44:43;100459.72;;;21.37;51.82
20019;BME280;10170;42.502;26.526;2023-05-13T09:47:13;100466.00;;;21.16;51.83
20019;BME280;10170;42.502;26.526;2023-05-13T09:49:41;100475.19;;;21.73;50.94
20019;BME280;10170;42.502;26.526;2023-05-13T09:52:08;100464.66;;;21.76;51.34
20019;BME280;10170;42.502;26.526;2023-05-13T09:54:38;100469.88;;;22.56;49.26
20019;BME280;10170;42.502;26.526;2023-05-13T09:57:05;100451.53;;;21.32;50.33
20019;BME280;10170;42.502;26.526;2023-05-13T09:59:35;100454.28;;;21.95;49.34
20019;BME280;10170;42.502;26.526;2023-05-13T10:02:06;100444.34;;;21.42;50.99
20019;BME280;10170;42.502;26.526;2023-05-13T10:04:33;100424.53;;;21.68;51.02
20019;BME280;10170;42.502;26.526;2023-05-13T10:07:02;100442.22;;;21.76;50.83
20019;BME280;10170;42.502;26.526;2023-05-13T10:09:35;100410.97;;;21.05;53.97
20019;BME280;10170;42.502;26.526;2023-05-13T10:12:06;100431.09;;;22.14;50.46
20019;BME280;10170;42.502;26.526;2023-05-13T10:14:34;100428.09;;;21.74;50.42
20019;BME280;10170;42.502;26.526;2023-05-13T10:17:02;100420.69;;;21.59;51.30
20019;BME280;10170;42.502;26.526;2023-05-13T10:19:30;100419.94;;;21.37;53.21
20019;BME280;10170;42.502;26.526;2023-05-13T10:21:58;100417.19;;;21.32;51.30
20019;BME280;10170;42.502;26.526;2023-05-13T10:24:25;100424.19;;;21.91;49.61
20019;BME280;10170;42.502;26.526;2023-05-13T10:26:55;100424.22;;;22.43;49.29
20019;BME280;10170;42.502;26.526;2023-05-13T10:29:23;100398.66;;;22.24;49.03
20019;BME280;10170;42.502;26.526;2023-05-13T10:31:51;100408.09;;;22.68;49.16
20019;BME280;10170;42.502;26.526;2023-05-13T10:34:20;100404.09;;;22.29;48.72
20019;BME280;10170;42.502;26.526;2023-05-13T10:42:40;100407.03;;;22.79;51.99
20019;BME280;10170;42.502;26.526;2023-05-13T10:45:09;100397.59;;;23.22;48.99
20019;BME280;10170;42.502;26.526;2023-05-13T10:47:36;100395.84;;;22.56;50.47
20019;BME280;10170;42.502;26.526;2023-05-13T10:50:23;100400.59;;;23.11;52.53
20019;BME280;10170;42.502;26.526;2023-05-13T10:52:55;100403.91;;;23.43;48.04
20019;BME280;10170;42.502;26.526;2023-05-13T10:55:22;100391.94;;;23.74;47.90
20019;BME280;10170;42.502;26.526;2023-05-13T10:58:07;100406.31;;;23.94;46.54
20019;BME280;10170;42.502;26.526;2023-05-13T11:00:35;100403.28;;;24.16;49.30
20019;BME280;10170;42.502;26.526;2023-05-13T11:03:11;100401.31;;;24.37;46.71
20019;BME280;10170;42.502;26.526;2023-05-13T11:05:40;100394.38;;;23.85;45.54
20019;BME280;10170;42.502;26.526;2023-05-13T11:08:09;100401.72;;;23.60;45.37
20019;BME280;10170;42.502;26.526;2023-05-13T11:10:39;100400.31;;;23.97;44.64
20019;BME280;10170;42.502;26.526;2023-05-13T11:15:52;100405.00;;;23.32;47.56
20019;BME280;10170;42.502;26.526;2023-05-13T11:18:28;100404.13;;;23.26;47.43
20019;BME280;10170;42.502;26.526;2023-05-13T11:21:01;100406.88;;;23.66;47.02
20019;BME280;10170;42.502;26.526;2023-05-13T11:23:32;100406.84;;;22.39;48.12
20019;BME280;10170;42.502;26.526;2023-05-13T11:26:14;100418.81;;;22.48;48.07
20019;BME280;10170;42.502;26.526;2023-05-13T11:29:04;100423.31;;;21.81;48.91
20019;BME280;10170;42.502;26.526;2023-05-13T11:31:42;100418.53;;;22.50;50.20
20019;BME280;10170;42.502;26.526;2023-05-13T11:34:12;100428.03;;;22.47;51.57
20019;BME280;10170;42.502;26.526;2023-05-13T11:36:42;100422.25;;;22.90;46.44
20019;BME280;10170;42.502;26.526;2023-05-13T11:39:10;100421.44;;;22.90;48.70
20019;BME280;10170;42.502;26.526;2023-05-13T11:41:40;100418.50;;;23.22;45.77
20019;BME280;10170;42.502;26.526;2023-05-13T11:44:07;100427.41;;;22.87;46.96
20019;BME280;10170;42.502;26.526;2023-05-13T11:46:34;100418.81;;;23.45;45.29
20019;BME280;10170;42.502;26.526;2023-05-13T11:49:01;100417.88;;;22.74;45.44
20019;BME280;10170;42.502;26.526;2023-05-13T11:51:32;100416.13;;;23.40;48.50
20019;BME280;10170;42.502;26.526;2023-05-13T11:54:01;100413.16;;;23.52;46.52
20019;BME280;10170;42.502;26.526;2023-05-13T11:56:28;100403.34;;;23.56;45.69
20019;BME280;10170;42.502;26.526;2023-05-13T11:59:11;100408.78;;;23.36;45.94
20019;BME280;10170;42.502;26.526;2023-05-13T12:01:39;100405.22;;;23.20;45.97
20019;BME280;10170;42.502;26.526;2023-05-13T12:04:06;100387.00;;;22.90;46.50
20019;BME280;10170;42.502;26.526;2023-05-13T12:06:34;100390.84;;;23.45;47.01
20019;BME280;10170;42.502;26.526;2023-05-13T12:09:05;100385.94;;;23.82;46.51
20019;BME280;10170;42.502;26.526;2023-05-13T12:11:32;100389.22;;;24.73;47.10
20019;BME280;10170;42.502;26.526;2023-05-13T12:13:59;100389.44;;;24.81;45.06
20019;BME280;10170;42.502;26.526;2023-05-13T12:16:26;100394.81;;;24.91;45.75
20019;BME280;10170;42.502;26.526;2023-05-13T12:19:14;100391.16;;;25.50;42.42
20019;BME280;10170;42.502;26.526;2023-05-13T12:21:41;100398.25;;;26.03;43.53
20019;BME280;10170;42.502;26.526;2023-05-13T12:24:17;100395.28;;;25.76;42.11
20019;BME280;10170;42.502;26.526;2023-05-13T12:26:44;100395.94;;;25.63;42.27
20019;BME280;10170;42.502;26.526;2023-05-13T12:29:11;100392.66;;;25.27;43.61
20019;BME280;10170;42.502;26.526;2023-05-13T12:31:40;100400.50;;;25.39;43.10
20019;BME280;10170;42.502;26.526;2023-05-13T12:34:07;100375.16;;;24.99;43.75
20019;BME280;10170;42.502;26.526;2023-05-13T12:36:37;100397.50;;;25.35;43.00
20019;BME280;10170;42.502;26.526;2023-05-13T12:39:09;100388.59;;;25.58;42.91
20019;BME280;10170;42.502;26.526;2023-05-13T12:41:38;100385.94;;;26.11;42.72
20019;BME280;10170;42.502;26.526;2023-05-13T12:44:13;100381.03;;;26.55;40.94
20019;BME280;10170;42.502;26.526;2023-05-13T12:46:53;100362.19;;;26.77;41.53
20019;BME280;10170;42.502;26.526;2023-05-13T12:49:21;100373.00;;;26.21;41.62
20019;BME280;10170;42.502;26.526;2023-05-13T12:51:48;100369.94;;;26.04;41.63
20019;BME280;10170;42.502;26.526;2023-05-13T12:54:15;100363.97;;;26.68;41.86
20019;BME280;10170;42.502;26.526;2023-05-13T12:56:42;100359.94;;;27.16;39.79
20019;BME280;10170;42.502;26.526;2023-05-13T12:59:09;100351.38;;;27.41;39.71
20019;BME280;10170;42.502;26.526;2023-05-13T13:01:36;100357.72;;;26.62;39.86
20019;BME280;10170;42.502;26.526;2023-05-13T13:04:02;100350.09;;;26.22;40.16